createdAt,value
2023-02-19T00:00:20.276Z,10.59
2023-02-19T00:01:21.173Z,10.52
2023-02-19T00:02:22.023Z,10.64
2023-02-19T00:03:23.014Z,10.66
2023-02-19T00:04:24.125Z,10.76
2023-02-19T00:05:25.008Z,10.8
2023-02-19T00:06:25.882Z,10.73
2023-02-19T00:07:26.795Z,10.72
2023-02-19T00:08:27.682Z,10.85
2023-02-19T00:09:28.568Z,10.91
2023-02-19T00:10:29.442Z,10.98
2023-02-19T00:11:30.324Z,11
2023-02-19T00:12:31.217Z,11.03
2023-02-19T00:13:32.141Z,11.03
2023-02-19T00:14:33.035Z,10.95
2023-02-19T00:15:33.946Z,10.58
2023-02-19T00:16:34.990Z,10.53
2023-02-19T00:17:35.861Z,10.61
2023-02-19T00:18:36.748Z,10.66
2023-02-19T00:19:37.659Z,10.71
2023-02-19T00:20:38.531Z,10.75
2023-02-19T00:21:39.421Z,10.67
2023-02-19T00:22:40.296Z,10.61
2023-02-19T00:23:41.172Z,10.52
2023-02-19T00:24:42.051Z,10.67
2023-02-19T00:25:42.931Z,10.59
2023-02-19T00:26:43.814Z,10.51
2023-02-19T00:27:44.728Z,10.5
2023-02-19T00:28:45.870Z,10.56
2023-02-19T00:29:46.767Z,10.55
2023-02-19T00:30:47.869Z,10.52
2023-02-19T00:31:49.190Z,10.63
2023-02-19T00:32:50.697Z,10.77
2023-02-19T00:33:51.656Z,10.75
2023-02-19T00:34:52.531Z,10.75
2023-02-19T00:35:53.451Z,10.68
2023-02-19T00:36:54.337Z,10.59
2023-02-19T00:37:55.223Z,10.54
2023-02-19T00:38:56.096Z,10.64
2023-02-19T00:39:56.996Z,10.66
2023-02-19T00:40:57.902Z,10.65
2023-02-19T00:41:58.808Z,10.55
2023-02-19T00:42:59.712Z,10.56
2023-02-19T00:44:00.655Z,10.62
2023-02-19T00:45:01.515Z,10.69
2023-02-19T00:46:02.509Z,10.79
2023-02-19T00:47:03.732Z,10.8
2023-02-19T00:48:04.667Z,10.81
2023-02-19T00:49:05.557Z,10.48
2023-02-19T00:50:06.535Z,10.57
2023-02-19T00:51:07.410Z,10.61
2023-02-19T00:52:09.069Z,10.48
2023-02-19T00:53:09.985Z,10.44
2023-02-19T00:54:10.883Z,10.5
2023-02-19T00:55:11.758Z,10.46
2023-02-19T00:56:12.621Z,10.52
2023-02-19T00:57:13.497Z,10.51
2023-02-19T00:58:14.418Z,10.57
2023-02-19T00:59:15.352Z,10.52
2023-02-19T01:00:16.238Z,10.54
2023-02-19T01:01:17.109Z,10.29
2023-02-19T01:02:18.149Z,10.49
2023-02-19T01:03:19.042Z,10.54
2023-02-19T01:04:20.186Z,10.56
2023-02-19T01:05:21.439Z,10.64
2023-02-19T01:06:22.318Z,10.73
2023-02-19T01:07:23.283Z,10.69
2023-02-19T01:08:24.153Z,10.74
2023-02-19T01:09:25.034Z,10.77
2023-02-19T01:10:25.918Z,10.86
2023-02-19T01:11:26.779Z,10.87
2023-02-19T01:12:27.690Z,10.9
2023-02-19T01:13:28.594Z,10.9
2023-02-19T01:14:29.605Z,10.98
2023-02-19T01:15:30.490Z,11
2023-02-19T01:16:31.385Z,11.04
2023-02-19T01:17:32.370Z,11.1
2023-02-19T01:18:33.246Z,11.11
2023-02-19T01:19:34.124Z,11.14
2023-02-19T01:20:35.009Z,11.17
2023-02-19T01:21:35.882Z,11.17
2023-02-19T01:22:36.745Z,11.17
2023-02-19T01:23:37.626Z,11.18
2023-02-19T01:24:38.535Z,11.17
2023-02-19T01:25:39.415Z,11.19
2023-02-19T01:26:40.297Z,11.22
2023-02-19T01:27:41.357Z,11.2
2023-02-19T01:28:42.241Z,11.21
2023-02-19T01:29:43.180Z,11.22
2023-02-19T01:30:44.055Z,11.21
2023-02-19T01:31:45.046Z,11.21
2023-02-19T01:32:46.373Z,11.21
2023-02-19T01:33:47.233Z,11.21
2023-02-19T01:34:48.156Z,11.22
2023-02-19T01:35:49.022Z,11.21
2023-02-19T01:36:49.923Z,11.21
2023-02-19T01:37:50.794Z,11.19
2023-02-19T01:38:51.712Z,11.2
2023-02-19T01:39:52.597Z,11.22
2023-02-19T01:40:53.493Z,11.23
2023-02-19T01:41:54.402Z,11.19
2023-02-19T01:42:55.288Z,11.19
2023-02-19T01:43:56.639Z,11.2
2023-02-19T01:44:57.635Z,11.21
2023-02-19T01:45:58.544Z,11.18
2023-02-19T01:46:59.453Z,11.17
2023-02-19T01:48:00.333Z,11.14
2023-02-19T01:49:01.215Z,11.14
2023-02-19T01:50:02.089Z,11.16
2023-02-19T01:51:03.116Z,11.14
2023-02-19T01:52:04.042Z,11.13
2023-02-19T01:53:04.949Z,11.1
2023-02-19T01:54:05.853Z,11.12
2023-02-19T01:55:06.753Z,11.13
2023-02-19T01:56:07.619Z,11.13
2023-02-19T01:57:08.499Z,11.17
2023-02-19T01:58:09.523Z,11.15
2023-02-19T01:59:10.431Z,11.12
2023-02-19T02:00:11.458Z,11.17
2023-02-19T02:01:12.637Z,11.13
2023-02-19T02:02:14.881Z,11.13
2023-02-19T02:03:16.098Z,11.16
2023-02-19T02:04:16.995Z,11.11
2023-02-19T02:05:17.885Z,11.11
2023-02-19T02:06:18.752Z,11.12
2023-02-19T02:07:19.641Z,11.1
2023-02-19T02:08:20.550Z,11.13
2023-02-19T02:09:21.444Z,11.11
2023-02-19T02:10:22.353Z,11.11
2023-02-19T02:11:23.315Z,11.14
2023-02-19T02:12:24.180Z,11.1
2023-02-19T02:13:25.080Z,11.11
2023-02-19T02:14:25.985Z,11.11
2023-02-19T02:15:26.965Z,11.11
2023-02-19T02:16:27.861Z,11.1
2023-02-19T02:17:29.070Z,11.11
2023-02-19T02:18:29.973Z,11.09
2023-02-19T02:19:30.869Z,11.1
2023-02-19T02:20:31.751Z,11.08
2023-02-19T02:21:32.631Z,11.1
2023-02-19T02:22:33.531Z,11.08
2023-02-19T02:23:34.395Z,11.08
2023-02-19T02:24:35.290Z,11.07
2023-02-19T02:25:36.195Z,11.07
2023-02-19T02:26:37.081Z,11.04
2023-02-19T02:27:37.950Z,11.05
2023-02-19T02:28:38.813Z,11.03
2023-02-19T02:29:39.714Z,11.05
2023-02-19T02:30:40.865Z,11.01
2023-02-19T02:31:41.806Z,11.02
2023-02-19T02:32:43.202Z,10.97
2023-02-19T02:33:44.082Z,10.98
2023-02-19T02:34:44.948Z,10.93
2023-02-19T02:35:45.812Z,10.92
2023-02-19T02:36:46.683Z,10.82
2023-02-19T02:37:47.572Z,10.84
2023-02-19T02:38:48.457Z,10.84
2023-02-19T02:39:49.405Z,10.86
2023-02-19T02:40:50.323Z,10.77
2023-02-19T02:41:51.248Z,10.84
2023-02-19T02:42:52.141Z,10.82
2023-02-19T02:43:53.009Z,10.78
2023-02-19T02:44:53.907Z,10.83
2023-02-19T02:45:54.882Z,10.85
2023-02-19T02:46:56.112Z,10.8
2023-02-19T02:47:56.996Z,10.73
2023-02-19T02:48:57.888Z,10.72
2023-02-19T02:49:58.784Z,10.71
2023-02-19T02:50:59.655Z,10.75
2023-02-19T02:52:00.562Z,10.74
2023-02-19T02:53:01.453Z,10.73
2023-02-19T02:54:02.367Z,10.74
2023-02-19T02:55:03.263Z,10.74
2023-02-19T02:56:04.148Z,10.75
2023-02-19T02:57:05.100Z,10.79
2023-02-19T02:58:05.985Z,10.78
2023-02-19T02:59:06.879Z,10.76
2023-02-19T03:00:07.790Z,10.79
2023-02-19T03:01:09.045Z,10.78
2023-02-19T03:02:11.532Z,10.74
2023-02-19T03:03:12.913Z,10.75
2023-02-19T03:04:13.943Z,10.77
2023-02-19T03:05:14.847Z,10.78
2023-02-19T03:06:15.732Z,10.79
2023-02-19T03:07:16.609Z,10.79
2023-02-19T03:08:17.530Z,10.78
2023-02-19T03:09:18.449Z,10.76
2023-02-19T03:10:19.309Z,10.77
2023-02-19T03:11:20.177Z,10.74
2023-02-19T03:12:21.087Z,10.74
2023-02-19T03:13:21.981Z,10.72
2023-02-19T03:14:22.900Z,10.73
2023-02-19T03:15:23.764Z,10.75
2023-02-19T03:16:24.722Z,10.76
2023-02-19T03:17:25.902Z,10.78
2023-02-19T03:18:26.790Z,10.78
2023-02-19T03:19:27.702Z,10.76
2023-02-19T03:20:28.576Z,10.74
2023-02-19T03:21:29.437Z,10.68
2023-02-19T03:22:30.298Z,10.72
2023-02-19T03:23:31.184Z,10.69
2023-02-19T03:24:32.082Z,10.62
2023-02-19T03:25:32.954Z,10.55
2023-02-19T03:26:33.819Z,10.47
2023-02-19T03:27:34.672Z,10.45
2023-02-19T03:28:35.539Z,10.46
2023-02-19T03:29:36.424Z,10.37
2023-02-19T03:30:37.372Z,10.32
2023-02-19T03:31:38.666Z,10.27
2023-02-19T03:32:40.121Z,10.26
2023-02-19T03:33:40.974Z,10.22
2023-02-19T03:34:41.878Z,10.19
2023-02-19T03:35:42.774Z,10.21
2023-02-19T03:36:43.656Z,10.19
2023-02-19T03:37:44.778Z,10.11
2023-02-19T03:38:45.650Z,10.12
2023-02-19T03:39:46.531Z,10.12
2023-02-19T03:40:47.408Z,10.08
2023-02-19T03:41:48.254Z,10.07
2023-02-19T03:42:49.172Z,10.08
2023-02-19T03:43:50.038Z,10.04
2023-02-19T03:44:50.914Z,10.01
2023-02-19T03:45:51.816Z,10.01
2023-02-19T03:46:52.917Z,10.02
2023-02-19T03:47:53.763Z,10
2023-02-19T03:48:54.633Z,9.99
2023-02-19T03:49:55.453Z,9.99
2023-02-19T03:50:56.293Z,9.93
2023-02-19T03:51:57.143Z,9.95
2023-02-19T03:52:57.988Z,9.97
2023-02-19T03:53:58.828Z,9.91
2023-02-19T03:54:59.656Z,9.86
2023-02-19T03:56:00.526Z,9.92
2023-02-19T03:57:01.374Z,9.93
2023-02-19T03:58:02.233Z,9.91
2023-02-19T03:59:03.058Z,9.89
2023-02-19T04:00:03.946Z,9.95
2023-02-19T04:01:04.912Z,9.89
2023-02-19T04:02:05.765Z,9.81
2023-02-19T04:03:06.942Z,9.82
2023-02-19T04:04:07.773Z,9.82
2023-02-19T04:05:08.634Z,9.9
2023-02-19T04:06:09.476Z,9.87
2023-02-19T04:07:10.322Z,9.89
2023-02-19T04:08:11.196Z,9.81
2023-02-19T04:09:12.051Z,9.81
2023-02-19T04:10:12.888Z,9.8
2023-02-19T04:11:13.830Z,9.88
2023-02-19T04:12:14.674Z,9.92
2023-02-19T04:13:15.524Z,9.91
2023-02-19T04:14:16.351Z,9.9
2023-02-19T04:15:17.191Z,9.91
2023-02-19T04:16:18.043Z,9.87
2023-02-19T04:17:19.178Z,9.89
2023-02-19T04:18:20.024Z,9.9
2023-02-19T04:19:20.851Z,9.93
2023-02-19T04:20:21.683Z,9.89
2023-02-19T04:21:22.687Z,9.92
2023-02-19T04:22:23.551Z,9.9
2023-02-19T04:23:24.416Z,9.95
2023-02-19T04:24:25.270Z,9.92
2023-02-19T04:25:26.112Z,9.92
2023-02-19T04:26:26.960Z,9.93
2023-02-19T04:27:27.788Z,9.94
2023-02-19T04:29:29.483Z,9.97
2023-02-19T04:30:30.449Z,9.92
2023-02-19T04:31:31.856Z,9.91
2023-02-19T04:32:33.200Z,9.95
2023-02-19T04:33:34.059Z,9.96
2023-02-19T04:34:34.913Z,9.94
2023-02-19T04:35:35.761Z,9.95
2023-02-19T04:36:36.580Z,9.93
2023-02-19T04:37:37.432Z,9.97
2023-02-19T04:38:38.292Z,9.94
2023-02-19T04:39:39.131Z,9.92
2023-02-19T04:40:39.962Z,9.99
2023-02-19T04:41:40.812Z,9.97
2023-02-19T04:42:41.642Z,9.98
2023-02-19T04:43:42.457Z,9.99
2023-02-19T04:44:43.316Z,10.01
2023-02-19T04:45:44.168Z,9.96
2023-02-19T04:46:45.006Z,9.94
2023-02-19T04:47:45.867Z,9.95
2023-02-19T04:48:46.730Z,9.96
2023-02-19T04:49:47.564Z,9.92
2023-02-19T04:50:48.438Z,9.97
2023-02-19T04:51:49.296Z,9.92
2023-02-19T04:52:50.137Z,9.94
2023-02-19T04:53:50.992Z,9.95
2023-02-19T04:54:51.826Z,9.93
2023-02-19T04:55:52.677Z,9.99
2023-02-19T04:56:53.493Z,9.94
2023-02-19T04:57:54.333Z,9.91
2023-02-19T04:58:55.198Z,9.89
2023-02-19T04:59:56.045Z,9.87
2023-02-19T05:00:56.908Z,9.87
2023-02-19T05:01:57.752Z,9.89
2023-02-19T05:02:58.612Z,9.95
2023-02-19T05:03:59.456Z,9.92
2023-02-19T05:05:00.294Z,9.89
2023-02-19T05:06:01.141Z,9.89
2023-02-19T05:07:01.952Z,9.87
2023-02-19T05:08:02.848Z,9.89
2023-02-19T05:09:03.714Z,9.89
2023-02-19T05:10:04.549Z,9.9
2023-02-19T05:11:05.403Z,9.94
2023-02-19T05:12:06.262Z,9.95
2023-02-19T05:13:07.132Z,9.89
2023-02-19T05:14:08.039Z,9.87
2023-02-19T05:15:08.883Z,9.88
2023-02-19T05:16:09.781Z,9.92
2023-02-19T05:17:11.069Z,9.92
2023-02-19T05:18:11.931Z,9.89
2023-02-19T05:19:12.780Z,9.92
2023-02-19T05:20:13.634Z,9.89
2023-02-19T05:21:14.597Z,9.9
2023-02-19T05:22:15.408Z,9.88
2023-02-19T05:23:16.261Z,9.88
2023-02-19T05:24:17.121Z,9.87
2023-02-19T05:25:17.953Z,9.87
2023-02-19T05:26:18.944Z,9.9
2023-02-19T05:27:19.767Z,9.93
2023-02-19T05:28:20.627Z,9.87
2023-02-19T05:29:21.464Z,9.88
2023-02-19T05:30:22.356Z,9.9
2023-02-19T05:31:23.749Z,9.88
2023-02-19T05:32:25.125Z,9.88
2023-02-19T05:33:25.979Z,9.86
2023-02-19T05:34:26.821Z,9.87
2023-02-19T05:35:27.679Z,9.87
2023-02-19T05:36:28.535Z,9.86
2023-02-19T05:37:29.378Z,9.88
2023-02-19T05:38:30.450Z,9.83
2023-02-19T05:39:31.285Z,9.84
2023-02-19T05:40:32.149Z,9.85
2023-02-19T05:41:32.983Z,9.87
2023-02-19T05:42:33.812Z,9.9
2023-02-19T05:43:34.668Z,9.86
2023-02-19T05:44:35.513Z,9.84
2023-02-19T05:45:36.378Z,9.82
2023-02-19T05:46:37.302Z,9.87
2023-02-19T05:47:38.632Z,9.87
2023-02-19T05:48:39.454Z,9.86
2023-02-19T05:49:40.300Z,9.85
2023-02-19T05:50:41.164Z,9.85
2023-02-19T05:51:42.029Z,9.82
2023-02-19T05:52:42.870Z,9.8
2023-02-19T05:53:43.715Z,9.79
2023-02-19T05:54:44.562Z,9.78
2023-02-19T05:55:45.390Z,9.79
2023-02-19T05:56:46.226Z,9.79
2023-02-19T05:57:47.079Z,9.81
2023-02-19T05:58:47.916Z,9.82
2023-02-19T05:59:48.734Z,9.83
2023-02-19T06:00:49.590Z,9.86
2023-02-19T06:01:50.520Z,9.82
2023-02-19T06:02:51.496Z,9.77
2023-02-19T06:03:54.079Z,9.76
2023-02-19T06:04:55.504Z,9.78
2023-02-19T06:05:56.411Z,9.8
2023-02-19T06:06:57.248Z,9.76
2023-02-19T06:07:58.121Z,9.77
2023-02-19T06:08:58.964Z,9.75
2023-02-19T06:09:59.810Z,9.76
2023-02-19T06:11:00.660Z,9.76
2023-02-19T06:12:01.508Z,9.76
2023-02-19T06:13:02.420Z,9.76
2023-02-19T06:14:03.265Z,9.75
2023-02-19T06:15:04.100Z,9.75
2023-02-19T06:16:05.004Z,9.71
2023-02-19T06:17:06.259Z,9.73
2023-02-19T06:18:07.082Z,9.66
2023-02-19T06:19:07.903Z,9.61
2023-02-19T06:20:08.745Z,9.56
2023-02-19T06:21:09.776Z,9.56
2023-02-19T06:22:11.834Z,9.58
2023-02-19T06:23:12.652Z,9.55
2023-02-19T06:24:13.502Z,9.5
2023-02-19T06:25:14.323Z,9.48
2023-02-19T06:26:15.168Z,9.45
2023-02-19T06:27:16.018Z,9.37
2023-02-19T06:28:16.860Z,9.38
2023-02-19T06:29:17.901Z,9.35
2023-02-19T06:30:18.773Z,9.28
2023-02-19T06:31:19.978Z,9.28
2023-02-19T06:32:21.666Z,9.32
2023-02-19T06:33:23.133Z,9.36
2023-02-19T06:34:23.945Z,9.35
2023-02-19T06:35:24.798Z,9.38
2023-02-19T06:36:25.661Z,9.35
2023-02-19T06:37:26.519Z,9.36
2023-02-19T06:38:27.370Z,9.33
2023-02-19T06:39:28.211Z,9.29
2023-02-19T06:40:29.053Z,9.28
2023-02-19T06:41:29.910Z,9.31
2023-02-19T06:42:30.766Z,9.29
2023-02-19T06:43:31.614Z,9.29
2023-02-19T06:44:32.463Z,9.32
2023-02-19T06:45:33.319Z,9.37
2023-02-19T06:46:34.225Z,9.36
2023-02-19T06:47:35.564Z,9.37
2023-02-19T06:48:36.431Z,9.37
2023-02-19T06:49:37.279Z,9.37
2023-02-19T06:50:38.166Z,9.39
2023-02-19T06:51:38.979Z,9.37
2023-02-19T06:52:39.828Z,9.4
2023-02-19T06:53:40.673Z,9.44
2023-02-19T06:54:41.525Z,9.41
2023-02-19T06:55:42.372Z,9.39
2023-02-19T06:56:44.894Z,9.4
2023-02-19T06:57:44.835Z,9.43
2023-02-19T06:58:45.692Z,9.48
2023-02-19T06:59:46.639Z,9.44
2023-02-19T07:00:47.566Z,9.46
2023-02-19T07:01:48.738Z,9.48
2023-02-19T07:02:49.643Z,9.48
2023-02-19T07:03:50.578Z,9.52
2023-02-19T07:04:51.779Z,9.51
2023-02-19T07:05:52.697Z,9.53
2023-02-19T07:06:53.547Z,9.54
2023-02-19T07:07:54.395Z,9.54
2023-02-19T07:08:55.360Z,9.54
2023-02-19T07:09:56.260Z,9.56
2023-02-19T07:10:57.085Z,9.58
2023-02-19T07:11:57.973Z,9.59
2023-02-19T07:12:58.815Z,9.65
2023-02-19T07:13:59.774Z,9.64
2023-02-19T07:15:00.626Z,9.66
2023-02-19T07:16:01.546Z,9.66
2023-02-19T07:17:02.853Z,9.66
2023-02-19T07:18:03.718Z,9.66
2023-02-19T07:19:04.561Z,9.59
2023-02-19T07:20:05.447Z,9.49
2023-02-19T07:21:06.314Z,9.5
2023-02-19T07:22:07.175Z,9.5
2023-02-19T07:23:08.026Z,9.5
2023-02-19T07:24:08.914Z,9.52
2023-02-19T07:25:09.766Z,9.5
2023-02-19T07:26:10.640Z,9.52
2023-02-19T07:27:11.490Z,9.53
2023-02-19T07:28:12.325Z,9.5
2023-02-19T07:29:13.145Z,9.49
2023-02-19T07:30:14.035Z,9.5
2023-02-19T07:31:15.417Z,9.51
2023-02-19T07:32:16.999Z,9.46
2023-02-19T07:33:17.833Z,9.47
2023-02-19T07:34:18.698Z,9.46
2023-02-19T07:35:19.542Z,9.46
2023-02-19T07:36:20.392Z,9.49
2023-02-19T07:37:21.278Z,9.51
2023-02-19T07:38:22.116Z,9.41
2023-02-19T07:39:22.950Z,9.47
2023-02-19T07:40:23.841Z,9.49
2023-02-19T07:41:24.689Z,9.46
2023-02-19T07:42:25.626Z,9.61
2023-02-19T07:43:26.488Z,9.9
2023-02-19T07:44:27.399Z,10.06
2023-02-19T07:45:28.300Z,10.11
2023-02-19T07:46:29.437Z,10.1
2023-02-19T07:47:30.278Z,9.9
2023-02-19T07:48:31.154Z,9.91
2023-02-19T07:49:32.051Z,9.97
2023-02-19T07:50:32.909Z,9.91
2023-02-19T07:51:33.755Z,9.77
2023-02-19T07:52:34.629Z,9.82
2023-02-19T07:53:35.494Z,9.86
2023-02-19T07:54:36.469Z,9.91
2023-02-19T07:55:37.392Z,9.98
2023-02-19T07:56:38.346Z,9.96
2023-02-19T07:57:39.235Z,9.98
2023-02-19T07:58:40.319Z,10.1
2023-02-19T07:59:41.413Z,9.87
2023-02-19T08:00:42.255Z,9.82
2023-02-19T08:01:45.329Z,9.88
2023-02-19T08:02:46.231Z,9.92
2023-02-19T08:03:48.855Z,9.95
2023-02-19T08:04:49.031Z,10
2023-02-19T08:05:49.894Z,9.96
2023-02-19T08:06:50.734Z,9.96
2023-02-19T08:07:51.631Z,10
2023-02-19T08:08:52.539Z,9.96
2023-02-19T08:09:53.405Z,9.92
2023-02-19T08:10:54.263Z,9.92
2023-02-19T08:11:55.127Z,9.9
2023-02-19T08:12:55.996Z,9.95
2023-02-19T08:13:56.860Z,9.94
2023-02-19T08:14:57.766Z,9.94
2023-02-19T08:16:07.579Z,10
2023-02-19T08:16:59.185Z,9.99
2023-02-19T08:18:00.316Z,10.02
2023-02-19T08:19:01.193Z,10.02
2023-02-19T08:20:02.098Z,10
2023-02-19T08:21:03.118Z,10.03
2023-02-19T08:22:04.029Z,10.07
2023-02-19T08:23:04.932Z,10.1
2023-02-19T08:24:05.875Z,10.09
2023-02-19T08:25:06.901Z,10.13
2023-02-19T08:26:07.791Z,10.14
2023-02-19T08:27:08.668Z,10.15
2023-02-19T08:28:09.522Z,10.15
2023-02-19T08:29:10.443Z,10.16
2023-02-19T08:30:11.350Z,10.18
2023-02-19T08:31:12.584Z,10.2
2023-02-19T08:32:15.216Z,10.26
2023-02-19T08:33:16.413Z,10.21
2023-02-19T08:34:17.306Z,10.18
2023-02-19T08:35:18.221Z,10.18
2023-02-19T08:36:19.166Z,10.16
2023-02-19T08:37:20.093Z,10.12
2023-02-19T08:38:20.972Z,10.15
2023-02-19T08:39:21.866Z,10.12
2023-02-19T08:40:22.721Z,9.95
2023-02-19T08:41:23.579Z,9.95
2023-02-19T08:42:24.418Z,9.91
2023-02-19T08:43:25.272Z,9.93
2023-02-19T08:44:26.130Z,9.94
2023-02-19T08:45:27.022Z,10
2023-02-19T08:46:27.892Z,9.9
2023-02-19T08:47:28.727Z,9.89
2023-02-19T08:48:29.578Z,9.93
2023-02-19T08:49:30.450Z,9.96
2023-02-19T08:50:31.307Z,10.02
2023-02-19T08:51:32.205Z,10.06
2023-02-19T08:52:33.142Z,10.01
2023-02-19T08:53:34.031Z,9.97
2023-02-19T08:54:36.804Z,9.99
2023-02-19T08:55:34.972Z,9.97
2023-02-19T08:56:36.423Z,10.04
2023-02-19T08:57:37.344Z,10.01
2023-02-19T08:58:38.380Z,10
2023-02-19T08:59:39.314Z,9.99
2023-02-19T09:00:40.176Z,9.97
2023-02-19T09:01:41.083Z,9.87
2023-02-19T09:02:42.388Z,9.94
2023-02-19T09:03:43.264Z,9.99
2023-02-19T09:04:44.246Z,9.94
2023-02-19T09:05:45.077Z,9.91
2023-02-19T09:06:45.948Z,9.96
2023-02-19T09:07:46.805Z,9.88
2023-02-19T09:08:47.708Z,9.91
2023-02-19T09:09:48.660Z,9.88
2023-02-19T09:10:49.501Z,9.92
2023-02-19T09:11:50.359Z,9.93
2023-02-19T09:12:51.234Z,9.89
2023-02-19T09:13:52.074Z,9.85
2023-02-19T09:14:52.999Z,9.85
2023-02-19T09:15:53.977Z,9.87
2023-02-19T09:16:55.064Z,9.9
2023-02-19T09:17:55.933Z,9.91
2023-02-19T09:18:56.787Z,9.96
2023-02-19T09:19:58.475Z,9.98
2023-02-19T09:20:59.451Z,9.98
2023-02-19T09:22:00.312Z,10
2023-02-19T09:23:01.192Z,9.99
2023-02-19T09:24:02.039Z,9.97
2023-02-19T09:25:02.914Z,9.96
2023-02-19T09:26:03.773Z,9.99
2023-02-19T09:27:04.709Z,10
2023-02-19T09:28:05.601Z,10.03
2023-02-19T09:29:06.468Z,10
2023-02-19T09:30:07.440Z,10.06
2023-02-19T09:31:08.845Z,10.08
2023-02-19T09:32:11.276Z,10.05
2023-02-19T09:33:12.706Z,10.09
2023-02-19T09:34:13.565Z,10.09
2023-02-19T09:35:14.466Z,10.1
2023-02-19T09:36:15.366Z,10.09
2023-02-19T09:37:16.264Z,10.07
2023-02-19T09:38:17.155Z,10.1
2023-02-19T09:39:18.055Z,10.15
2023-02-19T09:40:18.950Z,10.17
2023-02-19T09:41:19.880Z,10.13
2023-02-19T09:42:20.788Z,10.13
2023-02-19T09:43:21.839Z,10.14
2023-02-19T09:44:22.779Z,10.12
2023-02-19T09:45:23.689Z,10.13
2023-02-19T09:46:24.661Z,10.16
2023-02-19T09:47:25.896Z,10.23
2023-02-19T09:48:26.897Z,10.22
2023-02-19T09:49:27.782Z,10.23
2023-02-19T09:50:28.687Z,10.25
2023-02-19T09:51:29.580Z,10.31
2023-02-19T09:52:30.431Z,10.27
2023-02-19T09:53:31.314Z,10.37
2023-02-19T09:54:32.201Z,10.46
2023-02-19T09:55:33.097Z,10.46
2023-02-19T09:56:33.959Z,10.43
2023-02-19T09:57:34.862Z,10.45
2023-02-19T09:58:35.730Z,10.42
2023-02-19T09:59:36.666Z,10.42
2023-02-19T10:00:37.718Z,10.46
2023-02-19T10:01:38.637Z,10.48
2023-02-19T10:02:40.047Z,10.5
2023-02-19T10:03:40.926Z,10.49
2023-02-19T10:04:41.803Z,10.44
2023-02-19T10:05:42.733Z,10.49
2023-02-19T10:06:43.429Z,10.54
2023-02-19T10:07:44.300Z,10.6
2023-02-19T10:08:45.195Z,10.64
2023-02-19T10:09:46.076Z,10.51
2023-02-19T10:10:46.983Z,10.56
2023-02-19T10:11:47.849Z,10.58
2023-02-19T10:12:48.749Z,10.7
2023-02-19T10:13:49.619Z,10.71
2023-02-19T10:14:50.566Z,10.75
2023-02-19T10:15:51.446Z,10.81
2023-02-19T10:16:52.755Z,10.75
2023-02-19T10:17:53.630Z,10.82
2023-02-19T10:18:54.520Z,11.03
2023-02-19T10:19:55.525Z,11.18
2023-02-19T10:20:56.747Z,11.22
2023-02-19T10:21:57.629Z,11.09
2023-02-19T10:22:58.521Z,11.14
2023-02-19T10:23:59.397Z,11.15
2023-02-19T10:25:00.272Z,11.09
2023-02-19T10:26:01.159Z,11.21
2023-02-19T10:27:02.090Z,11.26
2023-02-19T10:28:02.961Z,11.08
2023-02-19T10:29:03.815Z,11.12
2023-02-19T10:30:04.722Z,11.07
2023-02-19T10:31:05.931Z,11.16
2023-02-19T10:32:07.167Z,11.03
2023-02-19T10:33:08.161Z,11.11
2023-02-19T10:34:09.004Z,11.13
2023-02-19T10:35:09.844Z,11.24
2023-02-19T10:36:10.684Z,11.16
2023-02-19T10:37:11.515Z,11.08
2023-02-19T10:38:12.364Z,11.14
2023-02-19T10:39:13.242Z,11.1
2023-02-19T10:40:14.063Z,11.09
2023-02-19T10:41:14.932Z,11.03
2023-02-19T10:42:15.787Z,10.8
2023-02-19T10:43:16.620Z,10.83
2023-02-19T10:44:17.468Z,10.75
2023-02-19T10:45:18.325Z,10.82
2023-02-19T10:46:19.247Z,10.91
2023-02-19T10:47:20.365Z,10.94
2023-02-19T10:48:21.205Z,10.84
2023-02-19T10:49:22.091Z,10.76
2023-02-19T10:50:22.950Z,10.83
2023-02-19T10:51:24.125Z,10.85
2023-02-19T10:52:24.989Z,10.96
2023-02-19T10:53:25.887Z,10.86
2023-02-19T10:54:26.749Z,10.83
2023-02-19T10:55:27.620Z,10.93
2023-02-19T10:56:28.771Z,10.71
2023-02-19T10:57:29.651Z,10.72
2023-02-19T10:58:30.578Z,10.84
2023-02-19T10:59:31.440Z,10.83
2023-02-19T11:00:32.389Z,10.77
2023-02-19T11:01:33.228Z,10.77
2023-02-19T11:02:34.351Z,10.84
2023-02-19T11:03:35.202Z,10.94
2023-02-19T11:04:36.073Z,11.06
2023-02-19T11:05:37.106Z,10.95
2023-02-19T11:06:37.946Z,11.01
2023-02-19T11:07:38.815Z,11.04
2023-02-19T11:08:39.669Z,11.29
2023-02-19T11:09:40.503Z,11.22
2023-02-19T11:10:41.336Z,11.33
2023-02-19T11:11:42.177Z,11.47
2023-02-19T11:12:43.005Z,11.59
2023-02-19T11:13:43.880Z,11.38
2023-02-19T11:14:44.710Z,11.53
2023-02-19T11:15:45.576Z,11.55
2023-02-19T11:16:46.387Z,11.51
2023-02-19T11:17:47.235Z,11.52
2023-02-19T11:18:48.112Z,11.4
2023-02-19T11:19:48.955Z,11.5
2023-02-19T11:20:49.810Z,11.3
2023-02-19T11:21:50.676Z,11.31
2023-02-19T11:22:51.501Z,11.27
2023-02-19T11:23:52.376Z,11.48
2023-02-19T11:24:56.739Z,11.52
2023-02-19T11:25:53.942Z,11.44
2023-02-19T11:26:54.914Z,11.37
2023-02-19T11:27:55.760Z,11.41
2023-02-19T11:28:56.631Z,11.51
2023-02-19T11:29:58.248Z,11.58
2023-02-19T11:30:59.126Z,11.56
2023-02-19T11:32:00.395Z,11.51
2023-02-19T11:33:01.703Z,11.28
2023-02-19T11:34:02.550Z,11.15
2023-02-19T11:35:03.437Z,11.23
2023-02-19T11:36:04.288Z,11.24
2023-02-19T11:37:05.147Z,11.2
2023-02-19T11:38:06.318Z,11.21
2023-02-19T11:39:07.158Z,11.33
2023-02-19T11:40:08.001Z,11.43
2023-02-19T11:41:09.225Z,11.41
2023-02-19T11:42:11.694Z,11.47
2023-02-19T11:43:12.540Z,11.23
2023-02-19T11:44:13.371Z,11.16
2023-02-19T11:45:14.229Z,11.22
2023-02-19T11:46:15.064Z,11.21
2023-02-19T11:47:15.971Z,11.29
2023-02-19T11:48:16.803Z,11.32
2023-02-19T11:49:17.629Z,11.36
2023-02-19T11:50:18.459Z,11.38
2023-02-19T11:51:19.297Z,11.17
2023-02-19T11:52:20.161Z,11.2
2023-02-19T11:53:21.008Z,11.23
2023-02-19T11:54:21.859Z,11.28
2023-02-19T11:55:22.833Z,11.25
2023-02-19T11:56:23.788Z,11.4
2023-02-19T11:57:24.640Z,11.42
2023-02-19T11:58:25.492Z,11.33
2023-02-19T11:59:26.317Z,11.3
2023-02-19T12:00:27.175Z,11.33
2023-02-19T12:01:28.015Z,11.25
2023-02-19T12:02:28.852Z,11.21
2023-02-19T12:03:29.954Z,11.38
2023-02-19T12:04:30.791Z,11.49
2023-02-19T12:05:31.645Z,11.24
2023-02-19T12:06:32.493Z,11.43
2023-02-19T12:07:33.371Z,11.51
2023-02-19T12:08:34.222Z,11.33
2023-02-19T12:09:35.105Z,11.34
2023-02-19T12:10:35.972Z,11.4
2023-02-19T12:11:36.805Z,11.31
2023-02-19T12:12:38.008Z,11.33
2023-02-19T12:13:39.004Z,11.32
2023-02-19T12:14:39.864Z,11.34
2023-02-19T12:15:40.764Z,11.21
2023-02-19T12:16:41.623Z,11.18
2023-02-19T12:17:42.640Z,11.23
2023-02-19T12:18:43.468Z,11.04
2023-02-19T12:19:44.323Z,11.17
2023-02-19T12:20:45.183Z,11.15
2023-02-19T12:21:46.049Z,11.26
2023-02-19T12:22:47.161Z,11.38
2023-02-19T12:23:48.026Z,11.37
2023-02-19T12:24:48.879Z,11.24
2023-02-19T12:25:49.737Z,11.27
2023-02-19T12:26:50.604Z,11.28
2023-02-19T12:27:51.412Z,11.3
2023-02-19T12:28:52.249Z,11.32
2023-02-19T12:29:53.116Z,11.25
2023-02-19T12:30:53.978Z,11.28
2023-02-19T12:31:54.942Z,11.32
2023-02-19T12:32:56.028Z,11.34
2023-02-19T12:33:56.872Z,11.5
2023-02-19T12:34:57.700Z,11.47
2023-02-19T12:35:58.575Z,11.6
2023-02-19T12:36:59.428Z,11.6
2023-02-19T12:38:00.291Z,11.33
2023-02-19T12:39:01.173Z,11.45
2023-02-19T12:40:02.016Z,11.46
2023-02-19T12:41:02.902Z,11.33
2023-02-19T12:42:03.769Z,11.44
2023-02-19T12:43:04.603Z,11.52
2023-02-19T12:44:05.461Z,11.4
2023-02-19T12:45:06.282Z,11.24
2023-02-19T12:46:07.177Z,11.08
2023-02-19T12:47:08.316Z,11.11
2023-02-19T12:48:09.208Z,11.02
2023-02-19T12:49:10.050Z,11.06
2023-02-19T12:50:10.901Z,11.09
2023-02-19T12:51:12.022Z,11.26
2023-02-19T12:52:12.862Z,11.26
2023-02-19T12:53:13.746Z,11.37
2023-02-19T12:54:14.661Z,11.14
2023-02-19T12:55:15.491Z,11.21
2023-02-19T12:56:16.368Z,11.26
2023-02-19T12:57:17.322Z,11.25
2023-02-19T12:58:18.238Z,11.19
2023-02-19T12:59:19.143Z,11.19
2023-02-19T13:00:19.983Z,11.22
2023-02-19T13:01:20.934Z,11.29
2023-02-19T13:02:22.050Z,11.23
2023-02-19T13:03:23.130Z,11.36
2023-02-19T13:04:24.047Z,11.49
2023-02-19T13:05:25.351Z,11.63
2023-02-19T13:06:26.195Z,11.47
2023-02-19T13:07:27.047Z,11.47
2023-02-19T13:08:27.906Z,11.49
2023-02-19T13:09:28.737Z,11.7
2023-02-19T13:10:29.572Z,11.69
2023-02-19T13:11:30.477Z,11.83
2023-02-19T13:12:31.645Z,11.72
2023-02-19T13:13:32.540Z,11.58
2023-02-19T13:14:33.388Z,11.5
2023-02-19T13:15:34.231Z,11.38
2023-02-19T13:16:35.090Z,11.43
2023-02-19T13:17:36.071Z,11.4
2023-02-19T13:18:36.895Z,11.25